sensor_id;sensor_type;location;lat;lon;timestamp;temperature;humidity
74081;SHT31;62438;52.228;6.864;2022-10-16T00:01:46;12.03;93.76
74081;SHT31;62438;52.228;6.864;2022-10-16T00:03:47;12.02;93.44
74081;SHT31;62438;52.228;6.864;2022-10-16T00:05:48;11.95;93.68
74081;SHT31;62438;52.228;6.864;2022-10-16T00:07:48;12.02;93.35
74081;SHT31;62438;52.228;6.864;2022-10-16T00:09:49;12.02;93.57
74081;SHT31;62438;52.228;6.864;2022-10-16T00:11:49;11.99;93.78
74081;SHT31;62438;52.228;6.864;2022-10-16T00:13:52;12.02;93.50
74081;SHT31;62438;52.228;6.864;2022-10-16T00:15:58;11.93;94.18
74081;SHT31;62438;52.228;6.864;2022-10-16T00:17:59;12.06;93.29
74081;SHT31;62438;52.228;6.864;2022-10-16T00:19:59;12.06;93.41
74081;SHT31;62438;52.228;6.864;2022-10-16T00:22:00;12.17;92.93
74081;SHT31;62438;52.228;6.864;2022-10-16T00:24:06;12.22;92.48
74081;SHT31;62438;52.228;6.864;2022-10-16T00:26:11;12.29;92.30
74081;SHT31;62438;52.228;6.864;2022-10-16T00:28:12;12.32;92.57
74081;SHT31;62438;52.228;6.864;2022-10-16T00:30:12;12.33;92.15
74081;SHT31;62438;52.228;6.864;2022-10-16T00:32:13;12.32;92.30
74081;SHT31;62438;52.228;6.864;2022-10-16T00:34:13;12.34;92.43
74081;SHT31;62438;52.228;6.864;2022-10-16T00:36:16;12.36;92.10
74081;SHT31;62438;52.228;6.864;2022-10-16T00:38:17;12.34;92.34
74081;SHT31;62438;52.228;6.864;2022-10-16T00:40:17;12.29;92.78
74081;SHT31;62438;52.228;6.864;2022-10-16T00:42:18;12.29;92.77
74081;SHT31;62438;52.228;6.864;2022-10-16T00:46:44;12.37;92.86
74081;SHT31;62438;52.228;6.864;2022-10-16T00:48:57;12.43;92.60
74081;SHT31;62438;52.228;6.864;2022-10-16T00:50:59;12.33;92.90
74081;SHT31;62438;52.228;6.864;2022-10-16T00:53:01;12.29;93.54
74081;SHT31;62438;52.228;6.864;2022-10-16T00:55:03;12.30;93.44
74081;SHT31;62438;52.228;6.864;2022-10-16T00:57:05;12.30;93.34
74081;SHT31;62438;52.228;6.864;2022-10-16T00:59:20;12.29;93.73
74081;SHT31;62438;52.228;6.864;2022-10-16T01:01:22;12.37;93.42
74081;SHT31;62438;52.228;6.864;2022-10-16T01:03:31;12.46;93.48
74081;SHT31;62438;52.228;6.864;2022-10-16T01:05:44;12.40;93.71
74081;SHT31;62438;52.228;6.864;2022-10-16T01:12:42;12.30;94.52
74081;SHT31;62438;52.228;6.864;2022-10-16T01:14:55;12.37;94.27
74081;SHT31;62438;52.228;6.864;2022-10-16T01:17:03;12.37;94.58
74081;SHT31;62438;52.228;6.864;2022-10-16T01:21:46;12.36;94.72
74081;SHT31;62438;52.228;6.864;2022-10-16T01:26:20;12.29;95.30
74081;SHT31;62438;52.228;6.864;2022-10-16T01:28:38;12.20;95.63
74081;SHT31;62438;52.228;6.864;2022-10-16T01:30:42;12.23;95.62
74081;SHT31;62438;52.228;6.864;2022-10-16T01:32:58;12.34;95.14
74081;SHT31;62438;52.228;6.864;2022-10-16T01:35:15;12.27;95.45
74081;SHT31;62438;52.228;6.864;2022-10-16T01:37:24;12.27;95.65
74081;SHT31;62438;52.228;6.864;2022-10-16T01:39:31;12.26;95.62
74081;SHT31;62438;52.228;6.864;2022-10-16T01:41:41;12.29;95.70
74081;SHT31;62438;52.228;6.864;2022-10-16T01:43:50;12.22;95.79
74081;SHT31;62438;52.228;6.864;2022-10-16T01:45:53;12.16;96.31
74081;SHT31;62438;52.228;6.864;2022-10-16T01:47:55;12.16;96.45
74081;SHT31;62438;52.228;6.864;2022-10-16T01:49:57;12.15;96.50
74081;SHT31;62438;52.228;6.864;2022-10-16T01:52:00;12.17;96.47
74081;SHT31;62438;52.228;6.864;2022-10-16T01:54:04;12.30;96.23
74081;SHT31;62438;52.228;6.864;2022-10-16T01:56:09;12.29;96.27
74081;SHT31;62438;52.228;6.864;2022-10-16T01:58:12;12.23;96.52
74081;SHT31;62438;52.228;6.864;2022-10-16T02:00:14;12.15;96.96
74081;SHT31;62438;52.228;6.864;2022-10-16T02:02:17;12.10;97.10
74081;SHT31;62438;52.228;6.864;2022-10-16T02:06:23;12.06;97.47
74081;SHT31;62438;52.228;6.864;2022-10-16T02:08:25;12.05;97.60
74081;SHT31;62438;52.228;6.864;2022-10-16T02:10:28;12.10;97.63
74081;SHT31;62438;52.228;6.864;2022-10-16T02:12:33;12.09;97.74
74081;SHT31;62438;52.228;6.864;2022-10-16T02:14:34;12.10;97.76
74081;SHT31;62438;52.228;6.864;2022-10-16T02:16:40;12.12;97.65
74081;SHT31;62438;52.228;6.864;2022-10-16T02:18:42;12.16;97.65
74081;SHT31;62438;52.228;6.864;2022-10-16T02:20:51;12.13;97.71
74081;SHT31;62438;52.228;6.864;2022-10-16T02:22:54;12.19;97.59
74081;SHT31;62438;52.228;6.864;2022-10-16T02:29:07;12.26;97.21
74081;SHT31;62438;52.228;6.864;2022-10-16T02:31:10;12.22;97.15
74081;SHT31;62438;52.228;6.864;2022-10-16T02:33:16;12.19;97.28
74081;SHT31;62438;52.228;6.864;2022-10-16T02:35:20;12.25;97.45
74081;SHT31;62438;52.228;6.864;2022-10-16T02:37:21;12.23;97.21
74081;SHT31;62438;52.228;6.864;2022-10-16T02:39:21;12.36;96.93
74081;SHT31;62438;52.228;6.864;2022-10-16T02:41:22;12.30;96.90
74081;SHT31;62438;52.228;6.864;2022-10-16T02:43:24;12.32;97.00
74081;SHT31;62438;52.228;6.864;2022-10-16T02:45:25;12.34;96.92
74081;SHT31;62438;52.228;6.864;2022-10-16T02:47:25;12.34;96.82
74081;SHT31;62438;52.228;6.864;2022-10-16T02:49:26;12.40;96.62
74081;SHT31;62438;52.228;6.864;2022-10-16T02:51:26;12.41;96.49
74081;SHT31;62438;52.228;6.864;2022-10-16T02:53:27;12.47;96.34
74081;SHT31;62438;52.228;6.864;2022-10-16T02:55:27;12.44;96.34
74081;SHT31;62438;52.228;6.864;2022-10-16T02:57:28;12.50;96.18
74081;SHT31;62438;52.228;6.864;2022-10-16T02:59:28;12.53;96.00
74081;SHT31;62438;52.228;6.864;2022-10-16T03:01:28;12.54;95.93
74081;SHT31;62438;52.228;6.864;2022-10-16T03:03:29;12.57;95.75
74081;SHT31;62438;52.228;6.864;2022-10-16T03:05:29;12.61;95.44
74081;SHT31;62438;52.228;6.864;2022-10-16T03:07:30;12.65;95.46
74081;SHT31;62438;52.228;6.864;2022-10-16T03:09:30;12.61;95.28
74081;SHT31;62438;52.228;6.864;2022-10-16T03:11:30;12.64;95.35
74081;SHT31;62438;52.228;6.864;2022-10-16T03:13:31;12.64;95.23
74081;SHT31;62438;52.228;6.864;2022-10-16T03:15:31;12.58;95.53
74081;SHT31;62438;52.228;6.864;2022-10-16T03:17:32;12.67;95.02
74081;SHT31;62438;52.228;6.864;2022-10-16T03:19:32;12.67;95.04
74081;SHT31;62438;52.228;6.864;2022-10-16T03:21:32;12.67;94.96
74081;SHT31;62438;52.228;6.864;2022-10-16T03:23:33;12.63;95.16
74081;SHT31;62438;52.228;6.864;2022-10-16T03:25:33;12.65;95.10
74081;SHT31;62438;52.228;6.864;2022-10-16T03:27:34;12.69;94.90
74081;SHT31;62438;52.228;6.864;2022-10-16T03:29:34;12.67;95.07
74081;SHT31;62438;52.228;6.864;2022-10-16T03:31:35;12.67;95.02
74081;SHT31;62438;52.228;6.864;2022-10-16T03:33:35;12.69;94.86
74081;SHT31;62438;52.228;6.864;2022-10-16T03:35:35;12.65;95.01
74081;SHT31;62438;52.228;6.864;2022-10-16T03:37:36;12.73;94.85
74081;SHT31;62438;52.228;6.864;2022-10-16T03:39:36;12.64;95.06
74081;SHT31;62438;52.228;6.864;2022-10-16T03:41:37;12.58;95.50
74081;SHT31;62438;52.228;6.864;2022-10-16T03:43:37;12.57;95.36
74081;SHT31;62438;52.228;6.864;2022-10-16T03:45:37;12.57;95.45
74081;SHT31;62438;52.228;6.864;2022-10-16T03:47:38;12.55;95.50
74081;SHT31;62438;52.228;6.864;2022-10-16T03:49:38;12.60;95.22
74081;SHT31;62438;52.228;6.864;2022-10-16T03:51:39;12.57;95.52
74081;SHT31;62438;52.228;6.864;2022-10-16T03:53:39;12.54;95.52
74081;SHT31;62438;52.228;6.864;2022-10-16T03:55:42;12.57;95.36
74081;SHT31;62438;52.228;6.864;2022-10-16T03:57:42;12.51;95.54
74081;SHT31;62438;52.228;6.864;2022-10-16T03:59:43;12.50;95.58
74081;SHT31;62438;52.228;6.864;2022-10-16T04:01:43;12.48;95.86
74081;SHT31;62438;52.228;6.864;2022-10-16T04:03:43;12.46;95.76
74081;SHT31;62438;52.228;6.864;2022-10-16T04:05:44;12.51;95.62
74081;SHT31;62438;52.228;6.864;2022-10-16T04:07:44;12.46;95.73
74081;SHT31;62438;52.228;6.864;2022-10-16T04:09:45;12.46;95.61
74081;SHT31;62438;52.228;6.864;2022-10-16T04:11:45;12.44;95.82
74081;SHT31;62438;52.228;6.864;2022-10-16T04:13:46;12.54;95.45
74081;SHT31;62438;52.228;6.864;2022-10-16T04:15:46;12.60;95.29
74081;SHT31;62438;52.228;6.864;2022-10-16T04:17:46;12.61;95.25
74081;SHT31;62438;52.228;6.864;2022-10-16T04:19:47;12.61;95.09
74081;SHT31;62438;52.228;6.864;2022-10-16T04:21:47;12.53;95.51
74081;SHT31;62438;52.228;6.864;2022-10-16T04:23:48;12.44;95.73
74081;SHT31;62438;52.228;6.864;2022-10-16T04:25:49;12.43;95.84
74081;SHT31;62438;52.228;6.864;2022-10-16T04:27:49;12.44;95.73
74081;SHT31;62438;52.228;6.864;2022-10-16T04:29:50;12.40;95.87
74081;SHT31;62438;52.228;6.864;2022-10-16T04:31:50;12.46;95.76
74081;SHT31;62438;52.228;6.864;2022-10-16T04:33:50;12.40;95.86
74081;SHT31;62438;52.228;6.864;2022-10-16T04:35:58;12.41;95.77
74081;SHT31;62438;52.228;6.864;2022-10-16T04:37:59;12.36;96.00
74081;SHT31;62438;52.228;6.864;2022-10-16T04:39:59;12.37;96.03
74081;SHT31;62438;52.228;6.864;2022-10-16T04:42:00;12.38;95.88
74081;SHT31;62438;52.228;6.864;2022-10-16T04:44:00;12.37;95.93
74081;SHT31;62438;52.228;6.864;2022-10-16T04:46:00;12.41;95.85
74081;SHT31;62438;52.228;6.864;2022-10-16T04:48:01;12.36;95.94
74081;SHT31;62438;52.228;6.864;2022-10-16T04:50:02;12.34;96.05
74081;SHT31;62438;52.228;6.864;2022-10-16T04:52:03;12.30;96.21
74081;SHT31;62438;52.228;6.864;2022-10-16T04:54:03;12.30;96.26
74081;SHT31;62438;52.228;6.864;2022-10-16T04:56:03;12.32;96.13
74081;SHT31;62438;52.228;6.864;2022-10-16T04:58:04;12.32;96.06
74081;SHT31;62438;52.228;6.864;2022-10-16T05:00:05;12.29;96.25
74081;SHT31;62438;52.228;6.864;2022-10-16T05:02:06;12.38;96.06
74081;SHT31;62438;52.228;6.864;2022-10-16T05:04:06;12.36;96.22
74081;SHT31;62438;52.228;6.864;2022-10-16T05:06:07;12.38;95.95
74081;SHT31;62438;52.228;6.864;2022-10-16T05:08:07;12.40;95.68
74081;SHT31;62438;52.228;6.864;2022-10-16T05:10:08;12.40;95.84
74081;SHT31;62438;52.228;6.864;2022-10-16T05:12:08;12.34;96.22
74081;SHT31;62438;52.228;6.864;2022-10-16T05:14:09;12.33;96.25
74081;SHT31;62438;52.228;6.864;2022-10-16T05:16:09;12.37;96.23
74081;SHT31;62438;52.228;6.864;2022-10-16T05:18:09;12.44;96.20
74081;SHT31;62438;52.228;6.864;2022-10-16T05:20:11;12.46;95.90
74081;SHT31;62438;52.228;6.864;2022-10-16T05:22:11;12.50;95.65
74081;SHT31;62438;52.228;6.864;2022-10-16T05:24:12;12.50;95.67
74081;SHT31;62438;52.228;6.864;2022-10-16T05:26:12;12.54;95.65
74081;SHT31;62438;52.228;6.864;2022-10-16T05:28:12;12.55;95.28
74081;SHT31;62438;52.228;6.864;2022-10-16T05:30:13;12.50;95.44
74081;SHT31;62438;52.228;6.864;2022-10-16T05:32:15;12.51;95.47
74081;SHT31;62438;52.228;6.864;2022-10-16T05:34:15;12.50;95.56
74081;SHT31;62438;52.228;6.864;2022-10-16T05:36:15;12.50;95.42
74081;SHT31;62438;52.228;6.864;2022-10-16T05:38:18;12.38;95.71
74081;SHT31;62438;52.228;6.864;2022-10-16T05:40:18;12.37;95.89
74081;SHT31;62438;52.228;6.864;2022-10-16T05:42:19;12.32;96.11
74081;SHT31;62438;52.228;6.864;2022-10-16T05:44:19;12.27;96.14
74081;SHT31;62438;52.228;6.864;2022-10-16T05:46:20;12.23;96.46
74081;SHT31;62438;52.228;6.864;2022-10-16T05:48:21;12.19;96.49
74081;SHT31;62438;52.228;6.864;2022-10-16T05:50:21;12.16;96.60
74081;SHT31;62438;52.228;6.864;2022-10-16T05:52:21;12.15;96.71
74081;SHT31;62438;52.228;6.864;2022-10-16T05:54:22;12.19;96.70
74081;SHT31;62438;52.228;6.864;2022-10-16T05:56:22;12.15;96.72
74081;SHT31;62438;52.228;6.864;2022-10-16T05:58:23;12.12;96.80
74081;SHT31;62438;52.228;6.864;2022-10-16T06:00:23;12.16;96.65
74081;SHT31;62438;52.228;6.864;2022-10-16T06:02:24;12.13;96.74
74081;SHT31;62438;52.228;6.864;2022-10-16T06:04:24;12.15;96.66
74081;SHT31;62438;52.228;6.864;2022-10-16T06:06:26;12.19;96.61
74081;SHT31;62438;52.228;6.864;2022-10-16T06:08:26;12.16;96.51
74081;SHT31;62438;52.228;6.864;2022-10-16T06:10:27;12.10;96.66
74081;SHT31;62438;52.228;6.864;2022-10-16T06:12:29;12.10;96.71
74081;SHT31;62438;52.228;6.864;2022-10-16T06:14:29;12.12;96.73
74081;SHT31;62438;52.228;6.864;2022-10-16T06:16:29;12.05;97.05
74081;SHT31;62438;52.228;6.864;2022-10-16T06:18:30;12.02;96.95
74081;SHT31;62438;52.228;6.864;2022-10-16T06:20:31;12.00;97.20
74081;SHT31;62438;52.228;6.864;2022-10-16T06:22:31;12.10;96.98
74081;SHT31;62438;52.228;6.864;2022-10-16T06:24:32;12.09;96.90
74081;SHT31;62438;52.228;6.864;2022-10-16T06:26:32;12.13;96.88
74081;SHT31;62438;52.228;6.864;2022-10-16T06:28:33;12.10;96.82
74081;SHT31;62438;52.228;6.864;2022-10-16T06:30:33;12.12;96.86
74081;SHT31;62438;52.228;6.864;2022-10-16T06:32:33;12.13;96.83
74081;SHT31;62438;52.228;6.864;2022-10-16T06:34:34;12.19;96.69
74081;SHT31;62438;52.228;6.864;2022-10-16T06:36:34;12.13;96.67
74081;SHT31;62438;52.228;6.864;2022-10-16T06:38:35;12.12;96.83
74081;SHT31;62438;52.228;6.864;2022-10-16T06:40:35;12.10;96.99
74081;SHT31;62438;52.228;6.864;2022-10-16T06:42:36;12.15;96.88
74081;SHT31;62438;52.228;6.864;2022-10-16T06:44:36;12.15;96.80
74081;SHT31;62438;52.228;6.864;2022-10-16T06:46:37;12.10;96.83
74081;SHT31;62438;52.228;6.864;2022-10-16T06:48:37;12.19;96.78
74081;SHT31;62438;52.228;6.864;2022-10-16T06:50:38;12.16;96.77
74081;SHT31;62438;52.228;6.864;2022-10-16T06:52:38;12.19;96.77
74081;SHT31;62438;52.228;6.864;2022-10-16T06:54:38;12.22;96.82
74081;SHT31;62438;52.228;6.864;2022-10-16T06:56:39;12.25;96.63
74081;SHT31;62438;52.228;6.864;2022-10-16T06:58:40;12.26;96.72
74081;SHT31;62438;52.228;6.864;2022-10-16T07:00:41;12.29;96.62
74081;SHT31;62438;52.228;6.864;2022-10-16T07:02:41;12.34;96.44
74081;SHT31;62438;52.228;6.864;2022-10-16T07:04:41;12.38;96.26
74081;SHT31;62438;52.228;6.864;2022-10-16T07:06:42;12.46;96.08
74081;SHT31;62438;52.228;6.864;2022-10-16T07:08:44;12.53;95.99
74081;SHT31;62438;52.228;6.864;2022-10-16T07:10:44;12.65;95.64
74081;SHT31;62438;52.228;6.864;2022-10-16T07:12:45;12.80;95.00
74081;SHT31;62438;52.228;6.864;2022-10-16T07:14:45;12.94;95.17
74081;SHT31;62438;52.228;6.864;2022-10-16T07:16:47;13.11;94.37
74081;SHT31;62438;52.228;6.864;2022-10-16T07:18:48;13.29;93.40
74081;SHT31;62438;52.228;6.864;2022-10-16T07:20:49;13.44;93.08
74081;SHT31;62438;52.228;6.864;2022-10-16T07:22:50;13.49;92.71
74081;SHT31;62438;52.228;6.864;2022-10-16T07:24:51;13.54;92.47
74081;SHT31;62438;52.228;6.864;2022-10-16T07:26:52;13.56;92.70
74081;SHT31;62438;52.228;6.864;2022-10-16T07:28:53;13.61;92.72
74081;SHT31;62438;52.228;6.864;2022-10-16T07:30:53;13.63;92.58
74081;SHT31;62438;52.228;6.864;2022-10-16T07:32:54;13.64;92.36
74081;SHT31;62438;52.228;6.864;2022-10-16T07:34:54;13.67;92.60
74081;SHT31;62438;52.228;6.864;2022-10-16T07:36:55;13.70;92.14
74081;SHT31;62438;52.228;6.864;2022-10-16T07:38:56;13.71;92.39
74081;SHT31;62438;52.228;6.864;2022-10-16T07:41:01;13.74;92.07
74081;SHT31;62438;52.228;6.864;2022-10-16T07:43:02;13.73;91.45
74081;SHT31;62438;52.228;6.864;2022-10-16T07:45:05;13.80;91.35
74081;SHT31;62438;52.228;6.864;2022-10-16T07:47:06;13.78;91.84
74081;SHT31;62438;52.228;6.864;2022-10-16T07:49:08;13.77;91.75
74081;SHT31;62438;52.228;6.864;2022-10-16T07:51:08;13.78;91.96
74081;SHT31;62438;52.228;6.864;2022-10-16T07:53:10;13.84;91.95
74081;SHT31;62438;52.228;6.864;2022-10-16T07:55:10;14.05;91.00
74081;SHT31;62438;52.228;6.864;2022-10-16T07:57:11;14.18;89.78
74081;SHT31;62438;52.228;6.864;2022-10-16T07:59:11;14.31;90.18
74081;SHT31;62438;52.228;6.864;2022-10-16T08:01:14;14.31;89.73
74081;SHT31;62438;52.228;6.864;2022-10-16T08:03:15;14.45;89.98
74081;SHT31;62438;52.228;6.864;2022-10-16T08:05:15;14.43;89.34
74081;SHT31;62438;52.228;6.864;2022-10-16T08:07:15;14.49;89.11
74081;SHT31;62438;52.228;6.864;2022-10-16T08:09:16;14.53;88.92
74081;SHT31;62438;52.228;6.864;2022-10-16T08:11:16;14.56;89.25
74081;SHT31;62438;52.228;6.864;2022-10-16T08:13:17;14.65;89.42
74081;SHT31;62438;52.228;6.864;2022-10-16T08:15:18;14.70;88.92
74081;SHT31;62438;52.228;6.864;2022-10-16T08:17:18;14.75;88.68
74081;SHT31;62438;52.228;6.864;2022-10-16T08:19:19;14.80;88.03
74081;SHT31;62438;52.228;6.864;2022-10-16T08:21:21;14.83;88.73
74081;SHT31;62438;52.228;6.864;2022-10-16T08:23:23;14.83;87.53
74081;SHT31;62438;52.228;6.864;2022-10-16T08:25:26;14.91;87.39
74081;SHT31;62438;52.228;6.864;2022-10-16T08:27:31;15.03;86.64
74081;SHT31;62438;52.228;6.864;2022-10-16T08:29:32;15.00;87.30
74081;SHT31;62438;52.228;6.864;2022-10-16T08:31:33;15.01;87.55
74081;SHT31;62438;52.228;6.864;2022-10-16T08:33:37;14.98;86.89
74081;SHT31;62438;52.228;6.864;2022-10-16T08:35:38;14.97;87.25
74081;SHT31;62438;52.228;6.864;2022-10-16T08:37:38;15.04;86.87
74081;SHT31;62438;52.228;6.864;2022-10-16T08:39:39;15.11;86.12
74081;SHT31;62438;52.228;6.864;2022-10-16T08:47:45;15.34;85.57
74081;SHT31;62438;52.228;6.864;2022-10-16T08:49:27;15.38;85.34
74081;SHT31;62438;52.228;6.864;2022-10-16T08:51:30;15.38;84.96
74081;SHT31;62438;52.228;6.864;2022-10-16T08:53:38;15.48;85.06
74081;SHT31;62438;52.228;6.864;2022-10-16T08:55:51;15.39;85.29
74081;SHT31;62438;52.228;6.864;2022-10-16T08:57:52;15.38;84.83
74081;SHT31;62438;52.228;6.864;2022-10-16T08:59:53;15.45;85.72
74081;SHT31;62438;52.228;6.864;2022-10-16T09:02:00;15.55;85.29
74081;SHT31;62438;52.228;6.864;2022-10-16T09:11:07;15.86;83.75
74081;SHT31;62438;52.228;6.864;2022-10-16T09:13:31;15.69;83.05
74081;SHT31;62438;52.228;6.864;2022-10-16T09:15:40;15.63;84.30
74081;SHT31;62438;52.228;6.864;2022-10-16T09:20:37;15.51;84.48
74081;SHT31;62438;52.228;6.864;2022-10-16T09:22:39;15.49;84.97
74081;SHT31;62438;52.228;6.864;2022-10-16T09:24:40;15.62;84.37
74081;SHT31;62438;52.228;6.864;2022-10-16T09:26:42;15.61;83.66
74081;SHT31;62438;52.228;6.864;2022-10-16T09:28:42;15.56;84.71
74081;SHT31;62438;52.228;6.864;2022-10-16T09:30:44;15.78;84.03
74081;SHT31;62438;52.228;6.864;2022-10-16T09:32:46;15.79;83.66
74081;SHT31;62438;52.228;6.864;2022-10-16T09:34:50;15.69;83.65
74081;SHT31;62438;52.228;6.864;2022-10-16T09:36:52;15.44;84.24
74081;SHT31;62438;52.228;6.864;2022-10-16T09:39:05;15.58;84.19
74081;SHT31;62438;52.228;6.864;2022-10-16T09:41:19;15.72;83.69
74081;SHT31;62438;52.228;6.864;2022-10-16T09:43:26;15.92;83.21
74081;SHT31;62438;52.228;6.864;2022-10-16T09:45:30;15.89;82.87
74081;SHT31;62438;52.228;6.864;2022-10-16T09:47:31;15.97;84.09
74081;SHT31;62438;52.228;6.864;2022-10-16T09:49:32;16.06;83.08
74081;SHT31;62438;52.228;6.864;2022-10-16T09:51:37;16.18;82.80
74081;SHT31;62438;52.228;6.864;2022-10-16T09:53:45;15.96;83.41
74081;SHT31;62438;52.228;6.864;2022-10-16T09:55:53;16.03;83.32
74081;SHT31;62438;52.228;6.864;2022-10-16T09:57:54;16.03;83.24
74081;SHT31;62438;52.228;6.864;2022-10-16T09:59:56;16.13;82.65
74081;SHT31;62438;52.228;6.864;2022-10-16T10:02:00;16.14;82.51
74081;SHT31;62438;52.228;6.864;2022-10-16T10:04:03;16.24;81.97
74081;SHT31;62438;52.228;6.864;2022-10-16T10:06:20;16.48;80.94
74081;SHT31;62438;52.228;6.864;2022-10-16T10:08:24;16.71;80.04
74081;SHT31;62438;52.228;6.864;2022-10-16T10:10:27;16.64;79.17
74081;SHT31;62438;52.228;6.864;2022-10-16T10:12:30;16.28;79.79
74081;SHT31;62438;52.228;6.864;2022-10-16T10:16:36;16.10;80.13
74081;SHT31;62438;52.228;6.864;2022-10-16T10:18:36;16.13;80.18
74081;SHT31;62438;52.228;6.864;2022-10-16T10:20:37;16.14;78.69
74081;SHT31;62438;52.228;6.864;2022-10-16T10:24:39;16.20;78.03
74081;SHT31;62438;52.228;6.864;2022-10-16T10:26:47;16.45;77.51
74081;SHT31;62438;52.228;6.864;2022-10-16T10:29:18;16.65;77.30
74081;SHT31;62438;52.228;6.864;2022-10-16T10:31:45;16.58;76.43
74081;SHT31;62438;52.228;6.864;2022-10-16T10:34:23;16.65;76.03
74081;SHT31;62438;52.228;6.864;2022-10-16T10:36:38;16.68;76.34
74081;SHT31;62438;52.228;6.864;2022-10-16T10:38:41;16.91;76.49
74081;SHT31;62438;52.228;6.864;2022-10-16T10:43:01;16.88;75.82
74081;SHT31;62438;52.228;6.864;2022-10-16T10:45:13;17.24;75.69
74081;SHT31;62438;52.228;6.864;2022-10-16T10:50:02;17.63;74.00
74081;SHT31;62438;52.228;6.864;2022-10-16T10:52:34;17.64;74.87
74081;SHT31;62438;52.228;6.864;2022-10-16T10:54:54;17.85;73.61
74081;SHT31;62438;52.228;6.864;2022-10-16T10:57:22;18.04;74.05
74081;SHT31;62438;52.228;6.864;2022-10-16T11:07:15;17.71;72.07
74081;SHT31;62438;52.228;6.864;2022-10-16T11:09:26;18.11;70.45
74081;SHT31;62438;52.228;6.864;2022-10-16T11:11:36;17.88;69.08
74081;SHT31;62438;52.228;6.864;2022-10-16T11:14:04;17.55;70.96
74081;SHT31;62438;52.228;6.864;2022-10-16T11:18:24;17.87;70.78
74081;SHT31;62438;52.228;6.864;2022-10-16T11:20:29;17.87;69.52
74081;SHT31;62438;52.228;6.864;2022-10-16T11:25:02;17.87;69.16
74081;SHT31;62438;52.228;6.864;2022-10-16T11:27:08;17.64;69.05
74081;SHT31;62438;52.228;6.864;2022-10-16T11:29:17;17.60;70.65
74081;SHT31;62438;52.228;6.864;2022-10-16T11:31:32;17.70;69.83
74081;SHT31;62438;52.228;6.864;2022-10-16T11:33:41;17.69;68.60
74081;SHT31;62438;52.228;6.864;2022-10-16T11:38:12;17.66;69.26
74081;SHT31;62438;52.228;6.864;2022-10-16T11:40:22;17.82;68.04
74081;SHT31;62438;52.228;6.864;2022-10-16T11:42:44;18.01;67.61
74081;SHT31;62438;52.228;6.864;2022-10-16T11:47:41;17.92;68.50
74081;SHT31;62438;52.228;6.864;2022-10-16T11:49:44;17.78;69.16
74081;SHT31;62438;52.228;6.864;2022-10-16T11:56:16;18.25;65.97
74081;SHT31;62438;52.228;6.864;2022-10-16T11:58:37;18.39;66.28
74081;SHT31;62438;52.228;6.864;2022-10-16T12:00:45;18.61;66.25
74081;SHT31;62438;52.228;6.864;2022-10-16T12:10:23;18.26;63.94
74081;SHT31;62438;52.228;6.864;2022-10-16T12:14:37;18.48;65.62
74081;SHT31;62438;52.228;6.864;2022-10-16T12:19:11;18.87;65.27
74081;SHT31;62438;52.228;6.864;2022-10-16T12:21:13;18.87;63.46
74081;SHT31;62438;52.228;6.864;2022-10-16T12:23:20;19.03;63.68
74081;SHT31;62438;52.228;6.864;2022-10-16T12:25:35;18.86;61.25
74081;SHT31;62438;52.228;6.864;2022-10-16T12:27:40;18.74;63.05
74081;SHT31;62438;52.228;6.864;2022-10-16T12:29:42;18.59;63.15
74081;SHT31;62438;52.228;6.864;2022-10-16T12:31:45;18.46;63.46
74081;SHT31;62438;52.228;6.864;2022-10-16T12:34:01;18.26;63.87
74081;SHT31;62438;52.228;6.864;2022-10-16T12:36:05;18.22;63.64
74081;SHT31;62438;52.228;6.864;2022-10-16T12:38:29;18.04;65.60
74081;SHT31;62438;52.228;6.864;2022-10-16T12:40:32;18.08;65.20
74081;SHT31;62438;52.228;6.864;2022-10-16T12:42:34;18.16;63.86
74081;SHT31;62438;52.228;6.864;2022-10-16T12:44:37;18.25;64.14
74081;SHT31;62438;52.228;6.864;2022-10-16T12:46:39;18.40;63.75
74081;SHT31;62438;52.228;6.864;2022-10-16T12:48:42;18.18;64.70
74081;SHT31;62438;52.228;6.864;2022-10-16T12:50:48;17.91;65.93
74081;SHT31;62438;52.228;6.864;2022-10-16T12:52:48;17.98;67.31
74081;SHT31;62438;52.228;6.864;2022-10-16T12:54:50;18.02;65.91
74081;SHT31;62438;52.228;6.864;2022-10-16T12:59:45;17.88;67.53
74081;SHT31;62438;52.228;6.864;2022-10-16T13:04:39;18.13;64.81
74081;SHT31;62438;52.228;6.864;2022-10-16T13:22:43;17.99;62.90
74081;SHT31;62438;52.228;6.864;2022-10-16T13:29:34;17.59;65.08
74081;SHT31;62438;52.228;6.864;2022-10-16T13:31:37;17.50;65.43
74081;SHT31;62438;52.228;6.864;2022-10-16T13:33:45;17.43;65.33
74081;SHT31;62438;52.228;6.864;2022-10-16T13:35:52;17.59;65.29
74081;SHT31;62438;52.228;6.864;2022-10-16T13:40:19;17.66;66.93
74081;SHT31;62438;52.228;6.864;2022-10-16T13:42:22;17.80;65.39
74081;SHT31;62438;52.228;6.864;2022-10-16T13:44:24;17.94;65.02
74081;SHT31;62438;52.228;6.864;2022-10-16T13:46:25;18.13;65.29
74081;SHT31;62438;52.228;6.864;2022-10-16T13:48:26;18.18;64.87
74081;SHT31;62438;52.228;6.864;2022-10-16T13:50:26;18.09;65.62
74081;SHT31;62438;52.228;6.864;2022-10-16T13:52:27;18.02;65.53
74081;SHT31;62438;52.228;6.864;2022-10-16T13:54:28;18.09;64.38
74081;SHT31;62438;52.228;6.864;2022-10-16T13:56:31;18.08;65.25
74081;SHT31;62438;52.228;6.864;2022-10-16T13:58:32;17.99;65.72
74081;SHT31;62438;52.228;6.864;2022-10-16T14:00:32;17.82;65.22
74081;SHT31;62438;52.228;6.864;2022-10-16T14:02:33;17.66;65.22
74081;SHT31;62438;52.228;6.864;2022-10-16T14:04:38;17.63;66.00
74081;SHT31;62438;52.228;6.864;2022-10-16T14:06:45;17.61;65.78
74081;SHT31;62438;52.228;6.864;2022-10-16T14:08:58;17.78;65.31
74081;SHT31;62438;52.228;6.864;2022-10-16T14:11:00;17.88;64.88
74081;SHT31;62438;52.228;6.864;2022-10-16T14:13:04;17.92;65.74
74081;SHT31;62438;52.228;6.864;2022-10-16T14:15:15;17.90;64.43
74081;SHT31;62438;52.228;6.864;2022-10-16T14:17:26;17.69;65.12
74081;SHT31;62438;52.228;6.864;2022-10-16T14:19:29;17.77;65.66
74081;SHT31;62438;52.228;6.864;2022-10-16T14:21:30;17.75;65.66
74081;SHT31;62438;52.228;6.864;2022-10-16T14:23:36;17.59;65.58
74081;SHT31;62438;52.228;6.864;2022-10-16T14:25:39;17.51;67.14
74081;SHT31;62438;52.228;6.864;2022-10-16T14:27:40;17.42;66.59
74081;SHT31;62438;52.228;6.864;2022-10-16T14:29:41;17.51;65.91
74081;SHT31;62438;52.228;6.864;2022-10-16T14:31:41;17.63;66.15
74081;SHT31;62438;52.228;6.864;2022-10-16T14:33:43;17.77;66.62
74081;SHT31;62438;52.228;6.864;2022-10-16T14:35:44;17.81;64.35
74081;SHT31;62438;52.228;6.864;2022-10-16T14:37:44;17.77;64.66
74081;SHT31;62438;52.228;6.864;2022-10-16T14:39:49;17.84;65.37
74081;SHT31;62438;52.228;6.864;2022-10-16T14:41:51;17.78;64.31
74081;SHT31;62438;52.228;6.864;2022-10-16T14:43:54;17.71;64.82
74081;SHT31;62438;52.228;6.864;2022-10-16T14:45:56;17.69;66.63